Potomac, Virginia
Current Conditions -  °F | °C
As of 1:52 AM on Tuesday 21 Oct 2014 (Local Time) from KDCA Reporting Station
Overcast Overcast  
Wind Chill: 59°   Ceiling: 11000
Heat Index: 59°   Visibility: 10mi
Dew Point: 48°   Wind: 7mph
Humidity: 67%   Direction: 170°S
Pressure: 29.91"   Gusts: NA
Location:  38.8194°N, 77.0596°W
Report Text: KDCA 210552Z 17006KT 10SM FEW080 OVC110 15/09 A2991 RMK AO2 SLP126 60001 T01500089 10172 20144 58021
Loading
Personal Weather Stations






























Interactive Weather Map
Tropical Storm Tracking
New forecast layout! Learn more

10-Day Weather Forecast

Advertisements
Track Severe Weather on mobile